Time;durP1;ratioP1;P1;durP2;ratioP2;P2;SDS_P1;SDS_P2;PMS_P1;PMS_P2;Temp;Humidity;BMP_temperature;BMP_pressure;BME280_temperature;BME280_humidity;BME280_pressure;Samples;Min_cycle;Max_cycle;Signal;HPM_P1;HPM_P2
2023/02/09 00:03:20;;;;;;;6.95;4.15;;;-8.60;99.90;;;;;;8233472;28;20052;-78
2023/02/09 00:07:20;;;;;;;9.95;3.92;;;-8.50;99.90;;;;;;8234508;28;20027;-78
2023/02/09 00:15:52;;;;;;;6.20;4.32;;;-8.60;99.90;;;;;;8230967;28;20558;-78
2023/02/09 00:19:54;;;;;;;4.85;3.40;;;-8.70;99.90;;;;;;8232637;28;20510;-78
2023/02/09 00:23:54;;;;;;;8.57;3.45;;;-8.80;99.90;;;;;;8234150;28;20547;-77
2023/02/09 00:27:55;;;;;;;4.07;3.00;;;-8.80;99.90;;;;;;8233120;28;20027;-78
2023/02/09 00:31:55;;;;;;;7.25;2.85;;;-9.00;99.90;;;;;;8232465;28;20066;-77
2023/02/09 00:35:56;;;;;;;8.82;3.78;;;-9.00;99.90;;;;;;8233487;28;20038;-78
2023/02/09 00:39:56;;;;;;;5.55;2.72;;;-9.00;99.90;;;;;;8232308;28;20027;-78
2023/02/09 00:43:57;;;;;;;7.60;3.25;;;-9.00;99.90;;;;;;8232542;28;20042;-78
2023/02/09 00:47:58;;;;;;;5.25;3.05;;;-9.00;99.90;;;;;;8230383;28;20143;-77
2023/02/09 00:51:58;;;;;;;4.82;2.53;;;-9.00;99.90;;;;;;8232416;28;20038;-78
2023/02/09 00:55:59;;;;;;;5.47;2.70;;;-8.90;99.90;;;;;;8231500;28;20118;-78
2023/02/09 00:59:59;;;;;;;4.90;2.90;;;-9.00;99.90;;;;;;8232107;28;20038;-77
2023/02/09 01:04:00;;;;;;;6.40;3.70;;;-9.00;99.90;;;;;;8229969;28;20101;-78
2023/02/09 01:08:01;;;;;;;8.10;4.10;;;-9.00;99.90;;;;;;8231184;28;20027;-78
2023/02/09 01:12:01;;;;;;;4.45;2.33;;;-9.00;99.90;;;;;;8222619;28;20109;-78
2023/02/09 01:16:11;;;;;;;7.10;3.17;;;-9.10;99.90;;;;;;8218142;28;20042;-78
2023/02/09 01:20:12;;;;;;;5.40;2.92;;;-9.10;99.90;;;;;;8227982;28;20078;-78
2023/02/09 01:24:14;;;;;;;8.52;3.90;;;-9.20;99.90;;;;;;8231827;28;20023;-77
2023/02/09 01:28:14;;;;;;;5.20;3.63;;;-9.20;99.90;;;;;;8227147;28;20027;-78
2023/02/09 01:32:15;;;;;;;5.10;2.50;;;-9.30;99.90;;;;;;8224048;28;20055;-77
2023/02/09 01:36:15;;;;;;;5.25;4.30;;;-9.50;99.90;;;;;;8217778;28;20559;-78
2023/02/09 01:40:16;;;;;;;8.73;3.88;;;-9.60;99.90;;;;;;8225538;28;20027;-77
2023/02/09 01:44:16;;;;;;;7.93;4.47;;;-9.50;99.90;;;;;;8229766;28;20092;-77
2023/02/09 01:48:21;;;;;;;7.57;4.07;;;-9.40;99.90;;;;;;8228682;28;20021;-77
2023/02/09 01:52:26;;;;;;;6.80;3.03;;;-9.40;99.90;;;;;;8223892;28;20118;-78
2023/02/09 01:56:29;;;;;;;5.47;3.67;;;-9.30;99.90;;;;;;8226340;28;20030;-78
2023/02/09 02:00:30;;;;;;;8.13;2.75;;;-9.30;99.90;;;;;;8230319;28;20499;-78
2023/02/09 02:04:32;;;;;;;4.75;2.55;;;-9.30;99.90;;;;;;8223087;28;20063;-78
2023/02/09 02:08:38;;;;;;;5.90;3.28;;;-9.30;99.90;;;;;;8228534;28;20031;-78
2023/02/09 02:12:39;;;;;;;3.83;2.00;;;-9.50;99.90;;;;;;8224234;28;20023;-77
2023/02/09 02:17:23;;;;;;;5.32;3.03;;;-9.60;99.90;;;;;;8227308;28;20030;-78
2023/02/09 02:22:21;;;;;;;4.90;2.47;;;-9.60;99.90;;;;;;8191990;28;20108;-78
2023/02/09 02:26:49;;;;;;;6.95;3.75;;;-9.60;99.90;;;;;;8148096;28;20491;-77
2023/02/09 02:31:09;;;;;;;10.82;2.97;;;-9.60;99.90;;;;;;8229468;28;20491;-78
2023/02/09 02:35:27;;;;;;;8.40;2.80;;;-9.60;99.90;;;;;;8230703;28;20444;-78
2023/02/09 02:39:43;;;;;;;6.28;3.85;;;-9.60;99.90;;;;;;8225955;28;20098;-80
2023/02/09 02:44:12;;;;;;;8.68;3.60;;;-9.70;99.90;;;;;;8225434;28;20675;-80
2023/02/09 02:48:37;;;;;;;9.40;3.55;;;-9.80;99.90;;;;;;8224802;28;20038;-80
2023/02/09 02:52:42;;;;;;;3.13;2.65;;;-9.90;99.90;;;;;;8228344;28;20022;-78
2023/02/09 02:56:48;;;;;;;7.18;3.00;;;-10.00;99.90;;;;;;8227838;28;20026;-78
2023/02/09 03:00:53;;;;;;;5.82;3.42;;;-9.90;99.90;;;;;;8229199;28;20039;-78
2023/02/09 03:04:55;;;;;;;8.10;2.33;;;-10.00;99.90;;;;;;8228516;28;20022;-78
2023/02/09 03:08:57;;;;;;;2.60;1.65;;;-9.80;99.90;;;;;;8228163;28;20027;-77
2023/02/09 03:13:00;;;;;;;3.13;2.50;;;-9.70;99.90;;;;;;8227930;28;20423;-78
2023/02/09 03:17:11;;;;;;;4.43;2.50;;;-9.40;99.90;;;;;;8230794;28;20085;-76
2023/02/09 03:21:36;;;;;;;8.27;2.72;;;-9.40;99.90;;;;;;8234732;28;20035;-78
2023/02/09 03:25:42;;;;;;;3.63;3.30;;;-9.50;99.90;;;;;;8234360;28;20081;-76
2023/02/09 03:29:46;;;;;;;3.90;2.58;;;-9.60;99.90;;;;;;8233987;28;20047;-77
2023/02/09 03:33:48;;;;;;;5.57;2.63;;;-9.80;99.90;;;;;;8235783;28;20081;-78
2023/02/09 03:37:49;;;;;;;10.63;2.95;;;-9.90;99.90;;;;;;8234169;28;20031;-77
2023/02/09 03:41:50;;;;;;;10.60;4.65;;;-9.90;99.90;;;;;;8233324;28;20027;-77
2023/02/09 03:45:50;;;;;;;4.22;2.90;;;-10.00;99.90;;;;;;8233151;28;20053;-78
2023/02/09 03:49:51;;;;;;;6.82;3.13;;;-10.00;99.90;;;;;;8233672;28;20034;-79
2023/02/09 03:53:51;;;;;;;5.20;2.63;;;-10.00;99.90;;;;;;8233198;28;20037;-78
2023/02/09 03:57:52;;;;;;;4.90;3.00;;;-10.00;99.90;;;;;;8233586;28;20027;-78
2023/02/09 04:01:54;;;;;;;7.03;3.53;;;-10.00;99.90;;;;;;8232371;28;20030;-78
2023/02/09 04:05:55;;;;;;;6.43;3.20;;;-10.00;99.90;;;;;;8232689;28;20086;-78
2023/02/09 04:09:55;;;;;;;3.97;3.05;;;-10.00;99.90;;;;;;8232302;28;20031;-78
2023/02/09 04:13:56;;;;;;;5.35;3.72;;;-10.00;99.90;;;;;;8232503;28;20019;-78
2023/02/09 04:17:56;;;;;;;3.80;2.80;;;-10.00;99.90;;;;;;8233143;28;20030;-78
2023/02/09 04:21:57;;;;;;;7.97;3.30;;;-10.00;99.90;;;;;;8234103;28;20041;-78
2023/02/09 04:25:58;;;;;;;6.80;2.75;;;-10.20;99.90;;;;;;8232824;28;20023;-78
2023/02/09 04:29:58;;;;;;;7.82;2.85;;;-10.20;99.90;;;;;;8231593;28;20030;-78
2023/02/09 04:33:59;;;;;;;2.33;1.85;;;-10.30;99.90;;;;;;8233171;28;20023;-78
2023/02/09 04:38:00;;;;;;;2.67;2.47;;;-10.20;99.90;;;;;;8233571;28;20057;-77
2023/02/09 04:42:00;;;;;;;24.65;4.13;;;-9.90;99.90;;;;;;8231980;28;20019;-78
2023/02/09 04:46:01;;;;;;;6.50;4.00;;;-9.70;99.90;;;;;;8231874;28;20026;-78
2023/02/09 04:50:02;;;;;;;5.05;2.67;;;-9.40;99.90;;;;;;8232205;28;20023;-78
2023/02/09 04:54:02;;;;;;;5.70;2.95;;;-9.40;99.90;;;;;;8231647;28;20483;-77
2023/02/09 05:02:22;;;;;;;5.53;1.70;;;-9.40;99.90;;;;;;8230133;28;20084;-78
2023/02/09 05:06:23;;;;;;;4.85;2.05;;;-9.30;99.90;;;;;;8230601;28;20019;-78
2023/02/09 05:10:23;;;;;;;3.40;1.88;;;-9.00;99.90;;;;;;8231008;28;20018;-77
2023/02/09 05:14:24;;;;;;;5.70;3.35;;;-9.10;99.90;;;;;;8230450;28;20114;-78
2023/02/09 05:18:24;;;;;;;7.10;2.28;;;-9.20;99.90;;;;;;8223559;28;20090;-77
2023/02/09 05:22:26;;;;;;;13.13;5.47;;;-8.90;99.90;;;;;;8230500;28;20027;-78
2023/02/09 05:26:26;;;;;;;11.93;5.00;;;-8.20;99.90;;;;;;8225792;28;20077;-78
2023/02/09 05:30:27;;;;;;;6.85;4.53;;;-7.40;99.90;;;;;;8230477;28;20030;-79
2023/02/09 05:34:27;;;;;;;7.82;4.57;;;-7.10;99.90;;;;;;8230337;28;20067;-78
2023/02/09 05:38:28;;;;;;;18.45;8.68;;;-6.50;99.90;;;;;;8231465;28;20042;-78
2023/02/09 05:42:28;;;;;;;11.88;5.93;;;-6.30;99.90;;;;;;8222995;28;20388;-78
2023/02/09 05:46:29;;;;;;;16.15;7.15;;;-6.10;99.90;;;;;;8231993;28;20062;-78
2023/02/09 05:50:30;;;;;;;16.85;7.00;;;-6.10;99.90;;;;;;8231869;28;20038;-79
2023/02/09 05:54:30;;;;;;;13.07;7.20;;;-5.90;99.90;;;;;;8231240;28;20034;-79
2023/02/09 05:58:31;;;;;;;19.67;7.22;;;-5.80;99.90;;;;;;8230835;28;20407;-79
2023/02/09 06:02:31;;;;;;;14.85;6.45;;;-5.80;99.90;;;;;;8231111;28;20022;-79
2023/02/09 06:06:32;;;;;;;14.98;6.88;;;-5.70;99.90;;;;;;8227021;28;20015;-78
2023/02/09 06:10:32;;;;;;;8.38;5.95;;;-5.60;99.90;;;;;;8230213;28;20069;-78
2023/02/09 06:14:33;;;;;;;16.70;9.13;;;-5.30;99.90;;;;;;8229718;28;20049;-78
2023/02/09 06:18:33;;;;;;;18.63;8.30;;;-5.30;99.90;;;;;;8231509;28;20039;-78
2023/02/09 06:22:34;;;;;;;18.63;10.27;;;-5.50;99.90;;;;;;8229459;28;20026;-77
2023/02/09 06:26:34;;;;;;;15.55;7.75;;;-5.30;99.90;;;;;;8227838;28;20049;-77
2023/02/09 06:30:35;;;;;;;16.63;8.52;;;-5.20;99.90;;;;;;8230012;28;20026;-78
2023/02/09 06:34:36;;;;;;;13.45;6.00;;;-5.00;99.90;;;;;;8224020;28;20034;-76
2023/02/09 06:38:37;;;;;;;27.48;11.52;;;-4.60;99.90;;;;;;8228950;28;20023;-77
2023/02/09 06:42:43;;;;;;;34.20;9.55;;;-4.60;99.90;;;;;;8227962;28;20034;-77
2023/02/09 06:46:44;;;;;;;20.10;8.82;;;-4.70;99.90;;;;;;8228913;28;20067;-78
2023/02/09 06:50:44;;;;;;;21.13;10.43;;;-4.90;99.90;;;;;;8228473;28;20065;-78
2023/02/09 06:54:45;;;;;;;23.02;10.63;;;-5.00;99.90;;;;;;8228490;28;20019;-78
2023/02/09 06:58:45;;;;;;;22.38;10.65;;;-4.60;99.90;;;;;;8229627;28;20057;-78
2023/02/09 07:02:46;;;;;;;22.35;10.43;;;-4.40;99.90;;;;;;8228289;28;20105;-78
2023/02/09 07:06:47;;;;;;;24.27;10.52;;;-4.40;99.90;;;;;;8227944;28;20025;-78
2023/02/09 07:10:47;;;;;;;26.02;11.75;;;-4.40;99.90;;;;;;8229158;28;20034;-78
2023/02/09 07:14:48;;;;;;;26.52;11.80;;;-4.30;99.90;;;;;;8228795;28;20030;-78
2023/02/09 07:18:48;;;;;;;23.95;12.38;;;-4.30;99.90;;;;;;8228000;28;20462;-77
2023/02/09 07:22:49;;;;;;;36.67;17.88;;;-4.20;99.90;;;;;;8228296;28;20030;-76
2023/02/09 07:26:49;;;;;;;32.92;15.98;;;-3.80;99.90;;;;;;8227366;28;20480;-77
2023/02/09 07:30:51;;;;;;;29.77;11.70;;;-4.00;99.90;;;;;;8227332;28;20015;-78
2023/02/09 07:34:52;;;;;;;24.50;12.02;;;-3.80;99.90;;;;;;8227208;28;20023;-77
2023/02/09 07:38:54;;;;;;;24.65;11.25;;;-3.60;99.90;;;;;;8227131;28;20029;-78
2023/02/09 07:42:55;;;;;;;24.48;11.25;;;-3.50;99.90;;;;;;8226472;28;20146;-76
2023/02/09 07:46:55;;;;;;;22.63;11.55;;;-3.10;99.90;;;;;;8224810;28;20030;-76
2023/02/09 07:50:56;;;;;;;25.90;7.45;;;-3.00;99.90;;;;;;8227670;28;20041;-77
2023/02/09 07:54:57;;;;;;;14.15;9.02;;;-3.00;99.90;;;;;;8227705;28;20109;-77
2023/02/09 07:58:57;;;;;;;19.60;10.75;;;-3.10;99.90;;;;;;8226619;28;20455;-76
2023/02/09 08:02:59;;;;;;;23.40;12.68;;;-3.10;99.90;;;;;;8227952;28;20169;-77
2023/02/09 08:06:59;;;;;;;23.90;10.98;;;-3.00;99.90;;;;;;8233265;28;20480;-76
2023/02/09 08:11:00;;;;;;;29.70;13.77;;;-2.80;99.90;;;;;;8233201;28;20027;-77
2023/02/09 08:15:01;;;;;;;35.25;13.43;;;-2.60;99.90;;;;;;8231613;28;20026;-77
2023/02/09 08:19:16;;;;;;;32.78;13.57;;;-2.50;99.90;;;;;;8232622;28;20551;-76
2023/02/09 08:23:23;;;;;;;32.90;14.18;;;-2.20;99.90;;;;;;8231930;28;20033;-78
2023/02/09 08:27:24;;;;;;;33.78;15.25;;;-1.90;99.90;;;;;;8232661;28;20019;-76
2023/02/09 08:31:25;;;;;;;17.20;7.63;;;-1.80;99.90;;;;;;8232683;28;20019;-77
2023/02/09 08:35:25;;;;;;;26.45;13.15;;;-1.70;99.90;;;;;;8232422;28;20431;-77
2023/02/09 08:39:26;;;;;;;27.80;11.40;;;-1.90;99.90;;;;;;8233321;28;20030;-77
2023/02/09 08:43:26;;;;;;;31.08;12.40;;;-1.90;99.90;;;;;;8231290;28;20029;-77
2023/02/09 08:47:27;;;;;;;46.80;15.43;;;-1.80;99.90;;;;;;8229594;28;20023;-79
2023/02/09 08:51:27;;;;;;;26.30;13.70;;;-1.80;99.90;;;;;;8232636;28;20034;-78
2023/02/09 08:55:29;;;;;;;29.75;13.95;;;-1.90;99.90;;;;;;8231367;28;20023;-77
2023/02/09 08:59:29;;;;;;;36.40;14.55;;;-1.90;99.90;;;;;;8232905;28;20015;-78
2023/02/09 09:03:31;;;;;;;28.20;13.63;;;-1.60;99.90;;;;;;8230182;28;20451;-77
2023/02/09 09:07:32;;;;;;;26.05;10.25;;;-1.70;99.90;;;;;;8230515;28;20330;-78
2023/02/09 09:11:32;;;;;;;33.85;13.55;;;-1.60;99.90;;;;;;8230409;28;20019;-75
2023/02/09 09:15:34;;;;;;;30.35;14.60;;;-1.60;99.90;;;;;;8230050;28;20113;-78
2023/02/09 09:19:35;;;;;;;30.75;14.00;;;-1.50;99.90;;;;;;8231961;28;20082;-77
2023/02/09 09:23:36;;;;;;;31.15;13.40;;;-1.40;99.90;;;;;;8231029;28;20019;-78
2023/02/09 09:27:36;;;;;;;35.03;13.70;;;-1.30;99.90;;;;;;8231774;28;20015;-78
2023/02/09 09:31:37;;;;;;;40.78;15.82;;;-1.10;99.90;;;;;;8226736;28;20030;-76
2023/02/09 09:35:37;;;;;;;16.15;8.05;;;-0.90;99.90;;;;;;8229749;28;20030;-77
2023/02/09 09:39:38;;;;;;;27.05;11.10;;;-0.70;99.90;;;;;;8229964;28;20027;-78
2023/02/09 09:43:40;;;;;;;37.92;15.68;;;-0.50;99.90;;;;;;8229801;28;20092;-77
2023/02/09 09:47:43;;;;;;;38.00;16.45;;;-0.20;99.90;;;;;;8227182;28;20023;-77
2023/02/09 09:51:46;;;;;;;40.20;13.38;;;0.00;99.90;;;;;;8229422;28;20404;-77
2023/02/09 09:55:50;;;;;;;19.67;9.90;;;0.40;99.90;;;;;;8230149;28;20018;-77
2023/02/09 09:59:53;;;;;;;31.58;15.23;;;0.50;99.90;;;;;;8229026;28;20675;-76
2023/02/09 10:03:59;;;;;;;31.48;14.90;;;0.70;99.90;;;;;;8227181;28;20018;-77
2023/02/09 10:08:14;;;;;;;32.63;14.63;;;1.00;99.90;;;;;;8228798;28;20023;-77
2023/02/09 10:12:36;;;;;;;41.17;18.60;;;1.30;99.90;;;;;;8226955;28;20027;-78
2023/02/09 10:16:37;;;;;;;33.33;14.95;;;1.70;99.90;;;;;;8228323;28;20029;-77
2023/02/09 10:20:47;;;;;;;40.45;17.92;;;2.10;99.90;;;;;;8224884;28;20110;-77
2023/02/09 10:24:48;;;;;;;35.60;15.82;;;2.60;99.90;;;;;;8227653;28;20035;-76
2023/02/09 10:28:52;;;;;;;39.88;17.65;;;3.10;99.90;;;;;;8228571;28;20506;-77
2023/02/09 10:32:57;;;;;;;40.38;15.90;;;3.40;99.90;;;;;;8228049;28;20029;-77
2023/02/09 10:37:18;;;;;;;28.40;13.43;;;3.00;99.90;;;;;;8228678;28;20031;-78
2023/02/09 10:41:20;;;;;;;29.13;13.60;;;2.70;99.90;;;;;;8228640;28;20026;-77
2023/02/09 10:45:31;;;;;;;34.78;16.10;;;2.60;99.90;;;;;;8228842;28;20045;-77
2023/02/09 10:49:35;;;;;;;30.05;14.00;;;2.60;99.90;;;;;;8227382;28;20023;-77
2023/02/09 10:53:39;;;;;;;34.60;14.52;;;2.80;99.90;;;;;;8229244;28;20037;-77
2023/02/09 10:57:39;;;;;;;31.20;15.20;;;3.00;99.90;;;;;;8225174;28;20082;-77
2023/02/09 11:01:43;;;;;;;31.67;15.20;;;3.00;99.90;;;;;;8227014;28;20019;-76
2023/02/09 11:05:46;;;;;;;26.23;12.88;;;3.00;99.90;;;;;;8227192;28;20023;-77
2023/02/09 11:09:50;;;;;;;39.88;16.60;;;3.40;99.90;;;;;;8227869;28;20073;-77
2023/02/09 11:13:51;;;;;;;35.47;17.02;;;3.80;99.90;;;;;;8226937;28;20023;-77
2023/02/09 11:18:07;;;;;;;31.65;15.55;;;4.90;99.90;;;;;;8227206;28;20047;-78
2023/02/09 11:22:16;;;;;;;30.95;15.05;;;6.00;99.90;;;;;;8223684;28;20030;-77
2023/02/09 11:26:22;;;;;;;36.05;15.50;;;5.90;99.90;;;;;;8224445;28;20046;-78
2023/02/09 11:30:51;;;;;;;29.63;14.18;;;6.00;99.90;;;;;;8226801;28;20105;-77
2023/02/09 11:35:08;;;;;;;28.30;13.77;;;7.00;99.90;;;;;;8221333;28;20058;-77
2023/02/09 11:39:22;;;;;;;32.25;14.57;;;7.50;99.90;;;;;;8234245;28;20035;-78
2023/02/09 11:43:36;;;;;;;27.88;11.65;;;8.30;99.90;;;;;;8235535;28;20027;-78
2023/02/09 11:47:54;;;;;;;26.35;11.95;;;8.00;99.90;;;;;;8234235;28;20026;-78
2023/02/09 11:51:58;;;;;;;28.85;13.00;;;8.30;99.90;;;;;;8228804;28;20031;-76
2023/02/09 11:56:02;;;;;;;24.25;12.40;;;8.50;99.90;;;;;;8233589;28;20030;-77
2023/02/09 12:00:05;;;;;;;23.00;12.48;;;8.60;99.90;;;;;;8233255;28;20042;-78
2023/02/09 12:04:26;;;;;;;28.63;13.27;;;8.60;99.90;;;;;;8232707;28;20029;-78
2023/02/09 12:08:33;;;;;;;;;;;8.80;99.90;;;;;;8233010;28;20026;-77
2023/02/09 12:12:43;;;;;;;20.10;9.68;;;8.70;99.90;;;;;;8234991;28;19913;-76
2023/02/09 12:16:56;;;;;;;28.60;13.95;;;8.30;99.90;;;;;;8228768;28;20030;-76
2023/02/09 12:21:05;;;;;;;26.83;13.18;;;8.60;99.90;;;;;;8233154;28;20057;-78
2023/02/09 12:25:12;;;;;;;27.67;12.85;;;9.30;99.90;;;;;;8230100;28;20027;-78
2023/02/09 12:29:33;;;;;;;22.88;11.63;;;9.90;99.90;;;;;;8231615;28;20019;-77
2023/02/09 12:33:39;;;;;;;14.73;8.40;;;9.60;99.90;;;;;;8231665;28;20019;-77
2023/02/09 12:38:14;;;;;;;25.75;11.20;;;10.20;99.90;;;;;;8229265;28;20023;-77
2023/02/09 12:42:24;;;;;;;26.73;12.45;;;9.90;99.90;;;;;;8231229;28;20023;-76
2023/02/09 12:46:28;;;;;;;24.25;12.50;;;8.90;99.90;;;;;;8229313;28;20030;-77
2023/02/09 12:50:41;;;;;;;23.00;10.95;;;6.90;99.90;;;;;;8230120;28;20114;-77
2023/02/09 12:54:55;;;;;;;22.10;11.02;;;5.40;99.90;;;;;;8227726;28;20049;-77
2023/02/09 12:59:14;;;;;;;23.27;11.20;;;4.50;99.90;;;;;;8227377;28;20110;-78
2023/02/09 13:03:19;;;;;;;28.23;11.60;;;4.10;99.90;;;;;;8226163;28;20085;-77
2023/02/09 13:07:26;;;;;;;20.17;10.15;;;3.90;99.90;;;;;;8229966;28;20026;-76
2023/02/09 13:12:10;;;;;;;26.33;12.07;;;3.70;99.90;;;;;;8226902;28;20440;-77
2023/02/09 13:16:22;;;;;;;23.95;10.60;;;3.60;99.90;;;;;;8229592;28;20082;-78
2023/02/09 13:20:32;;;;;;;19.77;10.27;;;3.60;99.90;;;;;;8229825;28;20038;-77
2023/02/09 13:24:37;;;;;;;23.38;11.60;;;3.60;99.90;;;;;;8230390;28;20027;-77
2023/02/09 13:28:38;;;;;;;25.52;11.00;;;3.70;99.90;;;;;;8230106;28;20023;-76
2023/02/09 13:33:07;;;;;;;26.48;12.35;;;3.70;99.90;;;;;;8230147;28;20027;-77
2023/02/09 13:37:25;;;;;;;21.27;11.40;;;3.80;99.90;;;;;;8205135;28;20038;-78
2023/02/09 13:41:39;;;;;;;27.23;13.05;;;3.80;99.90;;;;;;8229238;28;20027;-77
2023/02/09 13:45:47;;;;;;;26.63;12.48;;;3.80;99.90;;;;;;8226728;28;20014;-76
2023/02/09 13:50:01;;;;;;;22.55;10.85;;;3.90;99.90;;;;;;8228370;28;20022;-77
2023/02/09 13:54:02;;;;;;;23.17;10.82;;;4.00;99.90;;;;;;8229265;28;20018;-77
2023/02/09 13:58:06;;;;;;;26.00;10.88;;;3.80;99.90;;;;;;8229226;28;20680;-78
2023/02/09 14:02:18;;;;;;;22.15;9.75;;;3.80;99.90;;;;;;8228019;28;20491;-78
2023/02/09 14:06:34;;;;;;;23.52;10.32;;;3.80;99.90;;;;;;8225897;28;20026;-78
2023/02/09 14:10:35;;;;;;;20.40;8.63;;;3.80;99.90;;;;;;8229212;28;20027;-78
2023/02/09 14:19:24;;;;;;;22.27;10.38;;;3.80;99.90;;;;;;8227871;28;20062;-78
2023/02/09 14:23:26;;;;;;;22.63;10.48;;;3.70;99.90;;;;;;8227906;28;20496;-77
2023/02/09 14:27:31;;;;;;;21.55;10.68;;;3.60;99.90;;;;;;8225256;28;20110;-78
2023/02/09 14:31:34;;;;;;;23.60;10.38;;;3.60;99.90;;;;;;8229465;28;20450;-77
2023/02/09 14:35:40;;;;;;;24.48;10.05;;;3.60;99.90;;;;;;8227723;28;20034;-78
2023/02/09 14:40:07;;;;;;;22.70;10.75;;;3.60;99.90;;;;;;8223396;28;20019;-76
2023/02/09 14:44:07;;;;;;;27.98;11.55;;;3.60;99.90;;;;;;8207095;28;20419;-77
2023/02/09 14:48:34;;;;;;;26.75;11.30;;;3.60;99.90;;;;;;8228090;28;20061;-77
2023/02/09 14:52:37;;;;;;;20.98;10.07;;;3.60;99.90;;;;;;8227583;28;20079;-77
2023/02/09 14:56:38;;;;;;;21.77;10.05;;;3.60;99.90;;;;;;8228609;28;20106;-75
2023/02/09 15:00:39;;;;;;;26.60;11.05;;;3.60;99.90;;;;;;8222309;28;20050;-77
2023/02/09 15:04:40;;;;;;;22.80;10.18;;;3.40;99.90;;;;;;8223776;28;20022;-77
2023/02/09 15:08:41;;;;;;;21.23;11.65;;;3.30;99.90;;;;;;8223985;28;20034;-78
2023/02/09 15:12:42;;;;;;;30.75;13.65;;;3.20;99.90;;;;;;8231000;28;20110;-78
2023/02/09 15:16:42;;;;;;;20.02;10.13;;;3.20;99.90;;;;;;8227300;28;20495;-78
2023/02/09 15:20:43;;;;;;;23.92;10.82;;;3.00;99.90;;;;;;8232498;28;20054;-80
2023/02/09 15:24:46;;;;;;;23.73;10.32;;;2.90;99.90;;;;;;8230098;28;20110;-78
2023/02/09 15:28:47;;;;;;;23.75;11.45;;;2.70;99.90;;;;;;8238758;28;20019;-79
2023/02/09 15:32:48;;;;;;;22.70;12.25;;;2.50;99.90;;;;;;8238355;28;20030;-80
2023/02/09 15:36:49;;;;;;;31.33;15.38;;;2.30;99.90;;;;;;8242418;28;20027;-80
2023/02/09 15:49:41;;;;;;;29.00;13.55;;;2.10;99.90;;;;;;8229863;28;20061;-80
2023/02/09 15:53:42;;;;;;;26.50;11.10;;;1.70;99.90;;;;;;8231892;28;20030;-80
2023/02/09 15:57:43;;;;;;;24.05;10.80;;;1.70;99.90;;;;;;8232337;28;20019;-80
2023/02/09 16:01:44;;;;;;;19.67;9.70;;;1.40;99.90;;;;;;8233955;28;20022;-80
2023/02/09 16:05:48;;;;;;;21.88;9.88;;;1.40;99.90;;;;;;8233083;28;20019;-79
2023/02/09 16:09:49;;;;;;;24.90;9.68;;;1.20;99.90;;;;;;8232840;28;20023;-79
2023/02/09 16:13:49;;;;;;;19.23;9.38;;;1.00;99.90;;;;;;8233486;28;20100;-79
2023/02/09 16:17:50;;;;;;;21.42;10.07;;;1.00;99.90;;;;;;8232803;28;20040;-80
2023/02/09 16:21:55;;;;;;;21.33;9.65;;;0.60;99.90;;;;;;8231567;28;20603;-79
2023/02/09 16:25:58;;;;;;;20.15;8.68;;;0.60;99.90;;;;;;8228021;28;20054;-80
2023/02/09 16:29:58;;;;;;;20.25;8.43;;;0.40;99.90;;;;;;8232999;28;20668;-80
2023/02/09 16:33:59;;;;;;;19.52;8.55;;;0.30;99.90;;;;;;8233518;28;20042;-80
2023/02/09 16:37:59;;;;;;;19.75;9.45;;;0.00;99.90;;;;;;8229097;28;20023;-78
2023/02/09 16:42:00;;;;;;;24.30;10.27;;;-0.30;99.90;;;;;;8233602;28;20025;-80
2023/02/09 16:46:02;;;;;;;21.83;9.85;;;-0.60;99.90;;;;;;8233856;28;20611;-79
2023/02/09 16:50:27;;;;;;;19.92;10.07;;;-0.90;99.90;;;;;;8234176;28;20031;-80
2023/02/09 16:54:29;;;;;;;17.95;8.70;;;-1.10;99.90;;;;;;8234012;28;20023;-80
2023/02/09 16:58:29;;;;;;;23.80;9.73;;;-1.10;99.90;;;;;;8234669;28;20468;-79
2023/02/09 17:02:43;;;;;;;16.25;8.00;;;-1.20;99.90;;;;;;8235913;28;20033;-80
2023/02/09 17:06:47;;;;;;;19.92;8.98;;;-1.50;99.90;;;;;;8231478;28;20019;-80
2023/02/09 17:10:51;;;;;;;17.90;8.57;;;-1.90;99.90;;;;;;8230236;28;20049;-79
2023/02/09 17:14:52;;;;;;;19.52;9.07;;;-2.00;99.90;;;;;;8224993;28;20023;-80
2023/02/09 17:18:56;;;;;;;18.88;8.18;;;-2.10;99.90;;;;;;8232373;28;20054;-80
2023/02/09 17:22:57;;;;;;;21.55;8.10;;;-2.30;99.90;;;;;;8231594;28;20026;-80
2023/02/09 17:26:58;;;;;;;23.27;9.57;;;-2.30;99.90;;;;;;8229836;28;20667;-80
2023/02/09 17:31:00;;;;;;;26.05;11.65;;;-2.40;99.90;;;;;;8226995;28;20031;-79
2023/02/09 17:35:01;;;;;;;22.67;11.68;;;-2.20;99.90;;;;;;8224990;28;20090;-80
2023/02/09 17:39:02;;;;;;;28.52;13.20;;;-2.10;99.90;;;;;;8221731;28;20585;-80
2023/02/09 17:43:04;;;;;;;25.40;12.52;;;-1.90;99.90;;;;;;8221564;28;20031;-80
2023/02/09 17:47:04;;;;;;;25.02;11.63;;;-2.00;99.90;;;;;;8223098;28;20019;-80
2023/02/09 17:51:08;;;;;;;25.23;10.80;;;-2.20;99.90;;;;;;8227900;28;20467;-78
2023/02/09 17:55:30;;;;;;;30.45;12.95;;;-2.40;99.90;;;;;;8214804;28;20063;-80
2023/02/09 17:59:30;;;;;;;27.17;11.48;;;-2.60;99.90;;;;;;8222055;28;20754;-80
2023/02/09 18:03:31;;;;;;;23.90;10.77;;;-2.70;99.90;;;;;;8215417;28;20023;-80
2023/02/09 18:07:31;;;;;;;22.67;10.20;;;-2.80;99.90;;;;;;8218617;28;20516;-79
2023/02/09 18:11:44;;;;;;;25.25;12.43;;;-2.80;99.90;;;;;;8223372;28;20023;-79
2023/02/09 18:15:46;;;;;;;29.73;12.38;;;-2.50;99.90;;;;;;8232252;28;20077;-81
2023/02/09 18:19:47;;;;;;;27.25;12.00;;;-2.40;99.90;;;;;;8230047;28;20098;-80
2023/02/09 18:23:48;;;;;;;23.85;11.88;;;-2.30;99.90;;;;;;8226808;28;20660;-80
2023/02/09 18:27:50;;;;;;;32.88;14.25;;;-2.30;99.90;;;;;;8228919;28;20019;-80
2023/02/09 18:31:51;;;;;;;35.97;14.00;;;-2.20;99.90;;;;;;8229509;28;20134;-79
2023/02/09 18:35:51;;;;;;;26.13;12.85;;;-2.50;99.90;;;;;;8230150;28;20030;-80
2023/02/09 18:39:52;;;;;;;28.23;13.45;;;-2.70;99.90;;;;;;8229311;28;20100;-80
2023/02/09 18:43:52;;;;;;;38.53;16.52;;;-3.00;99.90;;;;;;8229487;28;20027;-81
2023/02/09 18:47:53;;;;;;;32.95;14.57;;;-3.10;99.90;;;;;;8229593;28;20084;-78
2023/02/09 18:51:55;;;;;;;48.70;18.17;;;-3.10;99.90;;;;;;8229102;28;20031;-80
2023/02/09 18:55:56;;;;;;;79.03;30.27;;;-3.00;99.90;;;;;;8226917;28;20085;-79
2023/02/09 18:59:56;;;;;;;31.55;12.80;;;-2.80;99.90;;;;;;8227958;28;20114;-80
2023/02/09 19:04:09;;;;;;;34.25;14.35;;;-3.00;99.90;;;;;;8229670;28;20077;-80
2023/02/09 19:08:09;;;;;;;38.03;14.63;;;-3.10;99.90;;;;;;8222990;28;20075;-80
2023/02/09 19:12:10;;;;;;;24.95;11.50;;;-3.20;99.90;;;;;;8221882;28;20394;-79
2023/02/09 19:16:11;;;;;;;18.10;9.60;;;-3.20;99.90;;;;;;8228073;28;20061;-80
2023/02/09 19:20:16;;;;;;;24.23;12.93;;;-3.20;99.90;;;;;;8226946;28;20031;-80
2023/02/09 19:24:17;;;;;;;32.30;11.52;;;-3.30;99.90;;;;;;8227476;28;20066;-80
2023/02/09 19:28:18;;;;;;;32.38;12.43;;;-3.50;99.90;;;;;;8227565;28;20492;-78
2023/02/09 19:32:19;;;;;;;21.85;11.20;;;-3.70;99.90;;;;;;8228195;28;20495;-79
2023/02/09 19:36:21;;;;;;;23.23;11.88;;;-3.90;99.90;;;;;;8225768;28;20022;-80
2023/02/09 19:40:28;;;;;;;20.00;10.38;;;-3.90;99.90;;;;;;8227784;28;20019;-80
2023/02/09 19:44:30;;;;;;;25.42;11.95;;;-4.00;99.90;;;;;;8228496;28;20089;-80
2023/02/09 19:48:31;;;;;;;24.45;11.38;;;-3.90;99.90;;;;;;8222746;28;20034;-77
2023/02/09 19:52:36;;;;;;;34.17;12.70;;;-3.90;99.90;;;;;;8222409;28;20049;-77
2023/02/09 19:56:36;;;;;;;29.67;13.10;;;-4.00;99.90;;;;;;8224879;28;20154;-77
2023/02/09 20:00:37;;;;;;;26.10;12.32;;;-4.10;99.90;;;;;;8231222;28;20081;-75
2023/02/09 20:04:38;;;;;;;28.27;12.95;;;-4.10;99.90;;;;;;8241191;28;20085;-78
2023/02/09 20:08:39;;;;;;;31.95;12.98;;;-4.00;99.90;;;;;;8236827;28;20027;-78
2023/02/09 20:12:40;;;;;;;24.40;12.05;;;-4.10;99.90;;;;;;8237591;28;20046;-76
2023/02/09 20:16:40;;;;;;;31.38;10.55;;;-4.20;99.90;;;;;;8233138;28;20498;-78
2023/02/09 20:20:42;;;;;;;21.83;9.32;;;-4.40;99.90;;;;;;8238299;28;20030;-79
2023/02/09 20:24:43;;;;;;;27.13;11.07;;;-4.50;99.90;;;;;;8239880;28;20406;-79
2023/02/09 20:28:44;;;;;;;17.35;9.30;;;-4.10;99.90;;;;;;8234876;28;20033;-78
2023/02/09 20:32:44;;;;;;;20.73;11.05;;;-4.30;99.90;;;;;;8233425;28;20081;-77
2023/02/09 20:36:47;;;;;;;19.75;9.85;;;-4.40;99.90;;;;;;8229827;28;20479;-78
2023/02/09 20:40:47;;;;;;;17.20;9.35;;;-4.60;99.90;;;;;;8228549;28;20027;-77
2023/02/09 20:49:08;;;;;;;26.35;10.00;;;-4.70;99.90;;;;;;8231540;28;20030;-77
2023/02/09 20:53:09;;;;;;;15.77;8.48;;;-4.70;99.90;;;;;;8229424;28;20555;-77
2023/02/09 20:57:09;;;;;;;20.83;9.52;;;-4.70;99.90;;;;;;8227461;28;20034;-77
2023/02/09 21:01:10;;;;;;;20.95;10.73;;;-4.80;99.90;;;;;;8229756;28;20403;-79
2023/02/09 21:05:11;;;;;;;16.45;7.75;;;-4.80;99.90;;;;;;8224037;28;20019;-78
2023/02/09 21:09:13;;;;;;;24.42;8.38;;;-4.60;99.90;;;;;;8229077;28;20027;-78
2023/02/09 21:13:14;;;;;;;25.58;11.00;;;-4.50;99.90;;;;;;8228321;28;20579;-78
2023/02/09 21:17:19;;;;;;;27.92;9.18;;;-4.50;99.90;;;;;;8226471;28;20037;-77
2023/02/09 21:21:21;;;;;;;25.55;9.40;;;-4.70;99.90;;;;;;8229936;28;20117;-77